createdAt,value
2022-10-07T00:00:09.653Z,36.87
2022-10-07T00:00:39.699Z,36.85
2022-10-07T00:01:09.860Z,36.84
2022-10-07T00:01:39.855Z,36.84
2022-10-07T00:02:09.869Z,36.87
2022-10-07T00:02:39.946Z,36.81
2022-10-07T00:03:09.905Z,36.87
2022-10-07T00:03:39.951Z,36.86
2022-10-07T00:04:09.996Z,36.85
2022-10-07T00:04:40.040Z,36.81
2022-10-07T00:05:10.081Z,36.83
2022-10-07T00:05:40.152Z,36.83
2022-10-07T00:06:10.195Z,36.87
2022-10-07T00:06:40.243Z,36.84
2022-10-07T00:07:10.287Z,36.84
2022-10-07T00:07:40.329Z,36.86
2022-10-07T00:08:10.378Z,36.80
2022-10-07T00:08:40.445Z,36.85
2022-10-07T00:09:10.470Z,36.84
2022-10-07T00:09:40.514Z,36.84
2022-10-07T00:10:10.561Z,36.87
2022-10-07T00:10:40.628Z,36.87
2022-10-07T00:11:10.689Z,36.89
2022-10-07T00:11:40.714Z,36.82
2022-10-07T00:12:10.759Z,36.85
2022-10-07T00:12:40.805Z,36.81
2022-10-07T00:13:10.855Z,36.81
2022-10-07T00:13:40.895Z,36.81
2022-10-07T00:14:10.940Z,36.83
2022-10-07T00:14:40.985Z,36.87
2022-10-07T00:15:11.030Z,36.87
2022-10-07T00:15:41.077Z,36.85
2022-10-07T00:16:11.191Z,36.87
2022-10-07T00:16:41.207Z,36.84
2022-10-07T00:17:11.131Z,36.87
2022-10-07T00:17:41.317Z,36.81
2022-10-07T00:18:11.214Z,36.84
2022-10-07T00:18:41.261Z,36.84
2022-10-07T00:19:11.305Z,36.85
2022-10-07T00:19:41.351Z,36.84
2022-10-07T00:20:11.394Z,36.84
2022-10-07T00:20:41.438Z,36.80
2022-10-07T00:21:11.486Z,36.80
2022-10-07T00:21:41.507Z,36.82
2022-10-07T00:22:11.514Z,36.81
2022-10-07T00:22:41.512Z,36.84
2022-10-07T00:23:11.515Z,36.78
2022-10-07T00:23:41.531Z,36.82
2022-10-07T00:24:11.535Z,36.81
2022-10-07T00:24:41.539Z,36.82
2022-10-07T00:25:11.543Z,36.77
2022-10-07T00:25:41.549Z,36.80
2022-10-07T00:26:11.562Z,36.76
2022-10-07T00:26:41.589Z,36.81
2022-10-07T00:27:11.571Z,36.82
2022-10-07T00:27:41.963Z,36.84
2022-10-07T00:28:11.651Z,36.81
2022-10-07T00:28:41.768Z,36.84
2022-10-07T00:29:11.660Z,36.80
2022-10-07T00:29:41.670Z,36.82
2022-10-07T00:30:11.673Z,36.85
2022-10-07T00:30:41.754Z,36.84
2022-10-07T00:31:11.857Z,36.77
2022-10-07T00:31:41.900Z,36.80
2022-10-07T00:32:11.943Z,36.75
2022-10-07T00:32:41.981Z,36.80
2022-10-07T00:33:12.029Z,36.80
2022-10-07T00:33:42.076Z,36.78
2022-10-07T00:34:12.117Z,36.82
2022-10-07T00:34:42.164Z,36.80
2022-10-07T00:35:12.195Z,36.78
2022-10-07T00:35:42.208Z,36.74
2022-10-07T00:36:14.904Z,36.80
2022-10-07T00:36:42.285Z,36.78
2022-10-07T00:37:12.305Z,36.76
2022-10-07T00:37:42.627Z,36.81
2022-10-07T00:38:12.317Z,36.84
2022-10-07T00:38:42.428Z,36.81
2022-10-07T00:39:12.536Z,36.81
2022-10-07T00:39:42.654Z,36.81
2022-10-07T00:40:12.765Z,36.84
2022-10-07T00:40:42.875Z,36.81
2022-10-07T00:41:12.990Z,36.81
2022-10-07T00:41:43.098Z,36.76
2022-10-07T00:42:13.247Z,36.76
2022-10-07T00:42:43.319Z,36.76
2022-10-07T00:43:13.433Z,36.80
2022-10-07T00:43:43.548Z,36.78
2022-10-07T00:44:13.653Z,36.80
2022-10-07T00:44:43.762Z,36.80
2022-10-07T00:45:13.873Z,36.78
2022-10-07T00:45:44.027Z,36.80
2022-10-07T00:46:14.064Z,36.81
2022-10-07T00:46:44.038Z,36.78
2022-10-07T00:47:14.154Z,36.78
2022-10-07T00:47:44.578Z,36.76
2022-10-07T00:48:14.357Z,36.75
2022-10-07T00:48:44.467Z,36.76
2022-10-07T00:49:14.579Z,36.75
2022-10-07T00:49:44.687Z,36.71
2022-10-07T00:50:14.804Z,36.76
2022-10-07T00:50:44.911Z,36.77
2022-10-07T00:51:15.029Z,36.78
2022-10-07T00:51:45.145Z,36.76
2022-10-07T00:52:15.251Z,36.76
2022-10-07T00:52:45.362Z,36.73
2022-10-07T00:53:15.472Z,36.73
2022-10-07T00:53:45.584Z,36.75
2022-10-07T00:54:15.696Z,36.75
2022-10-07T00:54:45.811Z,36.75
2022-10-07T00:55:15.928Z,36.78
2022-10-07T00:55:46.037Z,36.76
2022-10-07T00:56:16.151Z,36.76
2022-10-07T00:56:46.143Z,36.77
2022-10-07T00:57:16.180Z,36.76
2022-10-07T00:57:46.867Z,36.78
2022-10-07T00:58:16.390Z,36.78
2022-10-07T00:58:46.495Z,36.71
2022-10-07T00:59:16.608Z,36.77
2022-10-07T00:59:46.716Z,36.76
2022-10-07T01:00:16.829Z,36.82
2022-10-07T01:00:46.939Z,36.75
2022-10-07T01:01:17.243Z,36.68
2022-10-07T01:01:47.111Z,36.78
2022-10-07T01:02:17.247Z,36.78
2022-10-07T01:02:47.363Z,36.73
2022-10-07T01:03:17.376Z,36.76
2022-10-07T01:03:47.479Z,36.76
2022-10-07T01:04:17.592Z,36.73
2022-10-07T01:04:47.706Z,36.80
2022-10-07T01:05:17.825Z,36.73
2022-10-07T01:05:47.928Z,36.76
2022-10-07T01:06:18.049Z,36.74
2022-10-07T01:06:48.155Z,36.79
2022-10-07T01:07:18.270Z,36.79
2022-10-07T01:07:48.386Z,36.75
2022-10-07T01:08:18.490Z,36.76
2022-10-07T01:08:48.604Z,36.72
2022-10-07T01:09:18.713Z,36.75
2022-10-07T01:09:48.823Z,36.73
2022-10-07T01:10:18.937Z,36.74
2022-10-07T01:10:49.043Z,36.76
2022-10-07T01:11:19.160Z,36.82
2022-10-07T01:11:49.268Z,36.77
2022-10-07T01:12:19.403Z,36.73
2022-10-07T01:12:49.489Z,36.76
2022-10-07T01:13:19.602Z,36.71
2022-10-07T01:13:49.715Z,36.76
2022-10-07T01:14:19.834Z,36.74
2022-10-07T01:14:49.941Z,36.76
2022-10-07T01:15:20.050Z,36.73
2022-10-07T01:15:50.164Z,36.75
2022-10-07T01:16:20.298Z,36.70
2022-10-07T01:16:50.333Z,36.76
2022-10-07T01:17:20.270Z,36.79
2022-10-07T01:17:50.388Z,36.76
2022-10-07T01:18:20.512Z,36.76
2022-10-07T01:18:50.498Z,36.77
2022-10-07T01:19:20.609Z,36.73
2022-10-07T01:19:50.716Z,36.75
2022-10-07T01:20:20.830Z,36.79
2022-10-07T01:20:50.943Z,36.71
2022-10-07T01:21:21.053Z,36.75
2022-10-07T01:21:51.130Z,36.75
2022-10-07T01:22:21.202Z,36.71
2022-10-07T01:22:51.275Z,36.72
2022-10-07T01:23:21.362Z,36.73
2022-10-07T01:23:51.423Z,36.72
2022-10-07T01:24:21.499Z,36.77
2022-10-07T01:24:51.568Z,36.71
2022-10-07T01:25:21.641Z,36.75
2022-10-07T01:25:51.715Z,36.72
2022-10-07T01:26:21.804Z,36.76
2022-10-07T01:26:51.881Z,36.73
2022-10-07T01:27:21.978Z,36.74
2022-10-07T01:27:52.030Z,36.70
2022-10-07T01:28:22.172Z,36.72
2022-10-07T01:28:52.097Z,36.69
2022-10-07T01:29:22.172Z,36.72
2022-10-07T01:29:52.242Z,36.76
2022-10-07T01:30:22.318Z,36.73
2022-10-07T01:30:52.434Z,36.76
2022-10-07T01:31:22.573Z,36.71
2022-10-07T01:31:52.595Z,36.75
2022-10-07T01:32:22.710Z,36.76
2022-10-07T01:32:52.819Z,36.76
2022-10-07T01:33:22.934Z,36.72
2022-10-07T01:33:53.043Z,36.72
2022-10-07T01:34:23.037Z,36.73
2022-10-07T01:34:53.153Z,36.73
2022-10-07T01:35:23.268Z,36.71
2022-10-07T01:35:53.381Z,36.69
2022-10-07T01:36:23.503Z,36.75
2022-10-07T01:36:53.490Z,36.69
2022-10-07T01:37:23.602Z,36.67
2022-10-07T01:37:53.708Z,36.73
2022-10-07T01:38:23.825Z,36.67
2022-10-07T01:38:53.933Z,36.70
2022-10-07T01:39:24.044Z,36.68
2022-10-07T01:39:54.158Z,36.76
2022-10-07T01:40:24.268Z,36.69
2022-10-07T01:40:54.384Z,36.67
2022-10-07T01:41:24.506Z,36.71
2022-10-07T01:41:54.613Z,36.76
2022-10-07T01:42:24.731Z,36.74
2022-10-07T01:42:54.867Z,36.74
2022-10-07T01:43:24.955Z,36.73
2022-10-07T01:43:55.074Z,36.71
2022-10-07T01:44:25.179Z,36.70
2022-10-07T01:44:55.294Z,36.70
2022-10-07T01:45:25.409Z,36.67
2022-10-07T01:45:55.601Z,36.70
2022-10-07T01:46:25.763Z,36.74
2022-10-07T01:46:55.629Z,36.71
2022-10-07T01:47:25.742Z,36.67
2022-10-07T01:47:55.855Z,36.76
2022-10-07T01:48:25.971Z,36.70
2022-10-07T01:48:56.080Z,36.73
2022-10-07T01:49:26.191Z,36.70
2022-10-07T01:49:56.299Z,36.71
2022-10-07T01:50:26.420Z,36.74
2022-10-07T01:50:56.530Z,36.67
2022-10-07T01:51:26.655Z,36.67
2022-10-07T01:51:56.637Z,36.66
2022-10-07T01:52:26.749Z,36.74
2022-10-07T01:52:56.866Z,36.73
2022-10-07T01:53:26.978Z,36.68
2022-10-07T01:53:57.086Z,36.68
2022-10-07T01:54:27.198Z,36.68
2022-10-07T01:54:57.308Z,36.70
2022-10-07T01:55:27.421Z,36.70
2022-10-07T01:55:57.533Z,36.74
2022-10-07T01:56:27.652Z,36.73
2022-10-07T01:56:57.771Z,36.68
2022-10-07T01:57:27.885Z,36.70
2022-10-07T01:57:57.892Z,36.70
2022-10-07T01:58:27.985Z,36.69
2022-10-07T01:58:58.092Z,36.68
2022-10-07T01:59:28.209Z,36.67
2022-10-07T01:59:58.318Z,36.67
2022-10-07T02:00:28.439Z,36.65
2022-10-07T02:00:58.543Z,36.67
2022-10-07T02:01:28.700Z,36.65
2022-10-07T02:01:58.724Z,36.69
2022-10-07T02:02:28.696Z,36.64
2022-10-07T02:02:58.804Z,36.67
2022-10-07T02:03:28.943Z,36.73
2022-10-07T02:03:58.989Z,36.71
2022-10-07T02:04:28.972Z,36.68
2022-10-07T02:04:59.126Z,36.63
2022-10-07T02:05:29.103Z,36.67
2022-10-07T02:05:59.258Z,36.65
2022-10-07T02:06:29.250Z,36.70
2022-10-07T02:06:59.361Z,36.70
2022-10-07T02:07:29.480Z,36.70
2022-10-07T02:07:59.589Z,36.67
2022-10-07T02:08:29.700Z,36.68
2022-10-07T02:08:59.819Z,36.67
2022-10-07T02:09:29.931Z,36.68
2022-10-07T02:10:00.050Z,36.65
2022-10-07T02:10:30.163Z,36.65
2022-10-07T02:11:00.294Z,36.67
2022-10-07T02:11:30.283Z,36.67
2022-10-07T02:12:00.396Z,36.64
2022-10-07T02:12:30.511Z,36.71
2022-10-07T02:13:00.648Z,36.68
2022-10-07T02:13:30.737Z,36.69
2022-10-07T02:14:00.849Z,36.64
2022-10-07T02:14:30.961Z,36.61
2022-10-07T02:15:01.073Z,36.62
2022-10-07T02:15:31.237Z,36.65
2022-10-07T02:16:01.279Z,36.65
2022-10-07T02:16:31.282Z,36.65
2022-10-07T02:17:01.395Z,36.64
2022-10-07T02:17:31.503Z,36.63
2022-10-07T02:18:01.617Z,36.65
2022-10-07T02:18:31.736Z,36.65
2022-10-07T02:19:01.844Z,36.62
2022-10-07T02:19:31.957Z,36.65
2022-10-07T02:20:02.074Z,36.61
2022-10-07T02:20:32.181Z,36.64
2022-10-07T02:21:02.297Z,36.61
2022-10-07T02:21:32.395Z,36.62
2022-10-07T02:22:02.471Z,36.62
2022-10-07T02:22:32.539Z,36.64
2022-10-07T02:23:02.615Z,36.62
2022-10-07T02:23:32.695Z,36.57
2022-10-07T02:24:02.771Z,36.62
2022-10-07T02:24:32.845Z,36.60
2022-10-07T02:25:02.916Z,36.62
2022-10-07T02:25:32.991Z,36.56
2022-10-07T02:26:03.077Z,36.64
2022-10-07T02:26:33.145Z,36.62
2022-10-07T02:27:03.220Z,36.61
2022-10-07T02:27:33.299Z,36.65
2022-10-07T02:28:03.495Z,36.62
2022-10-07T02:28:33.562Z,36.58
2022-10-07T02:29:03.493Z,36.61
2022-10-07T02:29:33.571Z,36.61
2022-10-07T02:30:03.643Z,36.62
2022-10-07T02:30:33.715Z,36.60
2022-10-07T02:31:03.883Z,36.62
2022-10-07T02:31:33.985Z,36.61
2022-10-07T02:32:03.883Z,36.59
2022-10-07T02:32:33.872Z,36.58
2022-10-07T02:33:04.007Z,36.64
2022-10-07T02:33:34.105Z,36.59
2022-10-07T02:34:04.221Z,36.67
2022-10-07T02:34:34.332Z,36.59
2022-10-07T02:35:04.456Z,36.58
2022-10-07T02:35:34.557Z,36.62
2022-10-07T02:36:04.673Z,36.56
2022-10-07T02:36:34.791Z,36.55
2022-10-07T02:37:04.903Z,36.58
2022-10-07T02:37:35.016Z,36.65
2022-10-07T02:38:05.126Z,36.59
2022-10-07T02:38:35.238Z,36.56
2022-10-07T02:39:05.351Z,36.61
2022-10-07T02:39:35.461Z,36.58
2022-10-07T02:40:09.701Z,36.55
2022-10-07T02:40:35.594Z,36.58
2022-10-07T02:41:05.701Z,36.54
2022-10-07T02:41:35.813Z,36.62
2022-10-07T02:42:05.929Z,36.56
2022-10-07T02:42:36.040Z,36.55
2022-10-07T02:43:06.303Z,36.58
2022-10-07T02:43:36.251Z,36.62
2022-10-07T02:44:06.362Z,36.53
2022-10-07T02:44:36.474Z,36.58
2022-10-07T02:45:06.587Z,36.58
2022-10-07T02:45:36.699Z,36.56
2022-10-07T02:46:06.867Z,36.61
2022-10-07T02:46:36.924Z,36.58
2022-10-07T02:47:06.900Z,36.56
2022-10-07T02:47:37.009Z,36.59
2022-10-07T02:48:07.120Z,36.55
2022-10-07T02:48:37.235Z,36.56
2022-10-07T02:49:07.346Z,36.55
2022-10-07T02:49:37.338Z,36.52
2022-10-07T02:50:07.449Z,36.54
2022-10-07T02:50:37.562Z,36.55
2022-10-07T02:51:07.685Z,36.61
2022-10-07T02:51:37.788Z,36.58
2022-10-07T02:52:07.907Z,36.52
2022-10-07T02:52:38.010Z,36.53
2022-10-07T02:53:08.122Z,36.56
2022-10-07T02:53:38.237Z,36.56
2022-10-07T02:54:08.355Z,36.52
2022-10-07T02:54:38.352Z,36.50
2022-10-07T02:55:08.470Z,36.53
2022-10-07T02:55:38.579Z,36.56
2022-10-07T02:56:08.708Z,36.52
2022-10-07T02:56:38.696Z,36.55
2022-10-07T02:57:08.806Z,36.52
2022-10-07T02:57:38.919Z,36.50
2022-10-07T02:58:09.050Z,36.53
2022-10-07T02:58:39.143Z,36.52
2022-10-07T02:59:09.255Z,36.55
2022-10-07T02:59:39.364Z,36.50
2022-10-07T03:00:11.288Z,36.55
2022-10-07T03:00:39.502Z,36.53
2022-10-07T03:01:09.546Z,36.49
2022-10-07T03:01:39.623Z,36.52
2022-10-07T03:02:09.610Z,36.49
2022-10-07T03:02:39.721Z,36.53
2022-10-07T03:03:09.839Z,36.50
2022-10-07T03:03:39.960Z,36.53
2022-10-07T03:04:09.977Z,36.50
2022-10-07T03:04:40.084Z,36.52
2022-10-07T03:05:10.203Z,36.50
2022-10-07T03:05:40.346Z,36.53
2022-10-07T03:06:10.335Z,36.53
2022-10-07T03:06:40.447Z,36.52
2022-10-07T03:07:10.559Z,36.52
2022-10-07T03:07:40.671Z,36.50
2022-10-07T03:08:10.786Z,36.52
2022-10-07T03:08:40.907Z,36.55
2022-10-07T03:09:11.014Z,36.47
2022-10-07T03:09:41.130Z,36.47
2022-10-07T03:10:11.235Z,36.53
2022-10-07T03:10:41.361Z,36.53
2022-10-07T03:11:11.354Z,36.49
2022-10-07T03:11:41.460Z,36.49
2022-10-07T03:12:11.572Z,36.46
2022-10-07T03:12:41.682Z,36.43
2022-10-07T03:13:11.827Z,36.49
2022-10-07T03:13:41.914Z,36.49
2022-10-07T03:14:12.027Z,36.47
2022-10-07T03:14:42.140Z,36.50
2022-10-07T03:15:12.253Z,36.49
2022-10-07T03:15:42.938Z,36.49
2022-10-07T03:16:12.601Z,36.47
2022-10-07T03:16:42.456Z,36.50
2022-10-07T03:17:12.569Z,36.50
2022-10-07T03:17:43.131Z,36.47
2022-10-07T03:18:12.711Z,36.49
2022-10-07T03:18:42.823Z,36.49
2022-10-07T03:19:12.938Z,36.50
2022-10-07T03:19:43.049Z,36.46
2022-10-07T03:20:13.167Z,36.46
2022-10-07T03:20:43.297Z,36.49
2022-10-07T03:21:13.291Z,36.47
2022-10-07T03:21:43.362Z,36.46
2022-10-07T03:22:13.439Z,36.50
2022-10-07T03:22:43.517Z,36.50
2022-10-07T03:23:13.601Z,36.46
2022-10-07T03:23:43.678Z,36.47
2022-10-07T03:24:13.752Z,36.40
2022-10-07T03:24:43.827Z,36.44
2022-10-07T03:25:13.904Z,36.47
2022-10-07T03:25:43.983Z,36.48
2022-10-07T03:26:14.060Z,36.49
2022-10-07T03:26:44.134Z,36.49
2022-10-07T03:27:14.207Z,36.50
2022-10-07T03:27:44.573Z,36.49
2022-10-07T03:28:14.383Z,36.47
2022-10-07T03:28:44.494Z,36.49
2022-10-07T03:29:14.463Z,36.52
2022-10-07T03:29:44.511Z,36.49
2022-10-07T03:30:14.590Z,36.49
2022-10-07T03:30:44.705Z,36.48
2022-10-07T03:31:14.873Z,36.50
2022-10-07T03:31:44.828Z,36.53
2022-10-07T03:32:14.941Z,36.47
2022-10-07T03:32:45.053Z,36.52
2022-10-07T03:33:15.163Z,36.51
2022-10-07T03:33:45.274Z,36.46
2022-10-07T03:34:15.385Z,36.44
2022-10-07T03:34:45.493Z,36.50
2022-10-07T03:35:15.606Z,36.50
2022-10-07T03:35:45.720Z,36.45
2022-10-07T03:36:15.833Z,36.44
2022-10-07T03:36:45.945Z,36.49
2022-10-07T03:37:16.055Z,36.47
2022-10-07T03:37:46.683Z,36.47
2022-10-07T03:38:16.266Z,36.44
2022-10-07T03:38:46.379Z,36.47
2022-10-07T03:39:16.493Z,36.50
2022-10-07T03:39:46.608Z,36.49
2022-10-07T03:40:16.718Z,36.44
2022-10-07T03:40:46.839Z,36.47
2022-10-07T03:41:16.948Z,36.47
2022-10-07T03:41:47.057Z,36.46
2022-10-07T03:42:17.173Z,36.47
2022-10-07T03:42:47.280Z,36.48
2022-10-07T03:43:17.400Z,36.44
2022-10-07T03:43:47.458Z,36.43
2022-10-07T03:44:17.538Z,36.46
2022-10-07T03:44:47.655Z,36.47
2022-10-07T03:45:17.769Z,36.41
2022-10-07T03:45:47.883Z,36.40
2022-10-07T03:46:18.068Z,36.43
2022-10-07T03:46:48.083Z,36.34
2022-10-07T03:47:18.103Z,36.43
2022-10-07T03:47:48.216Z,36.41
2022-10-07T03:48:18.333Z,36.38
2022-10-07T03:48:48.438Z,36.42
2022-10-07T03:49:18.546Z,36.43
2022-10-07T03:49:48.658Z,36.37
2022-10-07T03:50:18.775Z,36.43
2022-10-07T03:50:48.889Z,36.38
2022-10-07T03:51:19.002Z,36.36
2022-10-07T03:51:49.110Z,36.40
2022-10-07T03:52:19.222Z,36.37
2022-10-07T03:52:49.335Z,36.41
2022-10-07T03:53:19.449Z,36.35
2022-10-07T03:53:49.558Z,36.39
2022-10-07T03:54:19.670Z,36.41
2022-10-07T03:54:49.782Z,36.41
2022-10-07T03:55:19.896Z,36.43
2022-10-07T03:55:50.008Z,36.41
2022-10-07T03:56:20.125Z,36.49
2022-10-07T03:56:50.239Z,36.45
2022-10-07T03:57:20.348Z,36.47
2022-10-07T03:57:51.296Z,36.44
2022-10-07T03:58:20.503Z,36.51
2022-10-07T03:58:50.751Z,36.52
2022-10-07T03:59:20.699Z,36.62
2022-10-07T03:59:50.812Z,36.63
2022-10-07T04:00:20.937Z,36.62
2022-10-07T04:00:51.040Z,36.56
2022-10-07T04:01:21.198Z,36.63
2022-10-07T04:01:51.406Z,36.58
2022-10-07T04:02:21.273Z,36.66
2022-10-07T04:02:51.448Z,36.69
2022-10-07T04:03:21.519Z,36.66
2022-10-07T04:03:51.515Z,36.66
2022-10-07T04:04:21.630Z,36.64
2022-10-07T04:04:51.741Z,36.61
2022-10-07T04:05:21.852Z,36.62
2022-10-07T04:05:51.978Z,36.64
2022-10-07T04:06:21.960Z,36.63
2022-10-07T04:06:52.071Z,36.70
2022-10-07T04:07:22.203Z,36.64
2022-10-07T04:07:52.306Z,36.61
2022-10-07T04:08:22.415Z,36.61
2022-10-07T04:08:52.525Z,36.61
2022-10-07T04:09:22.641Z,36.63
2022-10-07T04:09:52.756Z,36.60
2022-10-07T04:10:22.866Z,36.58
2022-10-07T04:10:52.983Z,36.60
2022-10-07T04:11:23.091Z,36.59
2022-10-07T04:11:53.104Z,36.57
2022-10-07T04:12:23.216Z,36.57
2022-10-07T04:12:53.326Z,36.57
2022-10-07T04:13:23.439Z,36.60
2022-10-07T04:13:53.575Z,36.54
2022-10-07T04:14:23.664Z,36.50
2022-10-07T04:14:53.775Z,36.52
2022-10-07T04:15:23.946Z,36.50
2022-10-07T04:15:53.992Z,36.43
2022-10-07T04:16:24.159Z,36.52
2022-10-07T04:16:54.036Z,36.45
2022-10-07T04:17:24.150Z,36.47
2022-10-07T04:17:54.256Z,36.43
2022-10-07T04:18:24.361Z,36.42
2022-10-07T04:18:54.478Z,36.39
2022-10-07T04:19:24.587Z,36.42
2022-10-07T04:19:54.756Z,36.37
2022-10-07T04:20:24.731Z,36.40
2022-10-07T04:20:54.711Z,36.36
2022-10-07T04:21:24.828Z,36.33
2022-10-07T04:21:54.943Z,36.36
2022-10-07T04:22:25.053Z,36.30
2022-10-07T04:22:55.172Z,36.26
2022-10-07T04:23:25.283Z,36.30
2022-10-07T04:23:55.393Z,36.27
2022-10-07T04:24:25.510Z,36.26
2022-10-07T04:24:55.618Z,36.20
2022-10-07T04:25:25.752Z,36.19
2022-10-07T04:25:55.741Z,36.14
2022-10-07T04:26:25.859Z,36.17
2022-10-07T04:26:55.963Z,36.20
2022-10-07T04:27:50.219Z,36.21
2022-10-07T04:27:56.085Z,36.20
2022-10-07T04:28:26.346Z,36.19
2022-10-07T04:28:56.233Z,36.10
2022-10-07T04:29:26.368Z,36.15
2022-10-07T04:29:56.459Z,36.10
2022-10-07T04:30:26.601Z,36.11
2022-10-07T04:30:56.580Z,36.11
2022-10-07T04:31:26.693Z,36.07
2022-10-07T04:31:56.710Z,36.09
2022-10-07T04:32:26.706Z,36.05
2022-10-07T04:32:56.728Z,35.97
2022-10-07T04:33:26.757Z,36.04
2022-10-07T04:33:56.779Z,36.09
2022-10-07T04:34:26.809Z,36.04
2022-10-07T04:34:56.832Z,36.03
2022-10-07T04:35:26.923Z,36.01
2022-10-07T04:35:56.963Z,36.00
2022-10-07T04:36:26.983Z,36.01
2022-10-07T04:36:57.009Z,35.98
2022-10-07T04:37:27.039Z,36.03
2022-10-07T04:37:57.067Z,36.00
2022-10-07T04:38:28.507Z,35.93
2022-10-07T04:38:57.130Z,35.91
2022-10-07T04:39:48.913Z,35.88
2022-10-07T04:40:00.941Z,36.00
2022-10-07T04:40:27.326Z,35.98
2022-10-07T04:40:57.355Z,35.93
2022-10-07T04:41:27.383Z,35.87
2022-10-07T04:41:57.411Z,35.88
2022-10-07T04:42:27.435Z,35.84
2022-10-07T04:42:57.467Z,35.87
2022-10-07T04:43:27.492Z,35.88
2022-10-07T04:43:58.093Z,35.98
2022-10-07T04:44:27.518Z,36.00
2022-10-07T04:44:57.571Z,35.95
2022-10-07T04:45:27.588Z,35.94
2022-10-07T04:45:57.612Z,36.00
2022-10-07T04:46:27.686Z,36.01
2022-10-07T04:46:57.718Z,36.01
2022-10-07T04:47:27.738Z,36.03
2022-10-07T04:47:57.764Z,35.95
2022-10-07T04:48:27.788Z,35.98
2022-10-07T04:48:57.812Z,36.01
2022-10-07T04:49:27.837Z,36.01
2022-10-07T04:49:57.859Z,35.97
2022-10-07T04:50:27.903Z,35.98
2022-10-07T04:50:57.926Z,35.93
2022-10-07T04:51:27.954Z,36.01
2022-10-07T04:51:57.976Z,35.98
2022-10-07T04:52:28.006Z,36.01
2022-10-07T04:52:58.031Z,36.02
2022-10-07T04:53:28.051Z,36.08
2022-10-07T04:53:58.086Z,36.00
2022-10-07T04:54:28.107Z,36.05
2022-10-07T04:54:58.132Z,36.06
2022-10-07T04:55:28.157Z,35.87
2022-10-07T04:55:58.183Z,35.85
2022-10-07T04:56:28.206Z,35.82
2022-10-07T04:56:58.229Z,35.95
2022-10-07T04:57:28.256Z,36.00
2022-10-07T04:57:58.280Z,36.05
2022-10-07T04:58:28.304Z,36.14
2022-10-07T04:58:58.331Z,36.08
2022-10-07T04:59:30.086Z,36.05
2022-10-07T04:59:58.364Z,36.13
2022-10-07T05:00:28.620Z,36.08
2022-10-07T05:00:58.481Z,36.06
2022-10-07T05:01:28.603Z,35.98
2022-10-07T05:01:58.702Z,36.21
2022-10-07T05:02:28.697Z,36.27
2022-10-07T05:02:58.697Z,36.33
2022-10-07T05:03:28.721Z,36.30
2022-10-07T05:03:58.747Z,36.27
2022-10-07T05:04:28.778Z,36.27
2022-10-07T05:04:58.807Z,36.20
2022-10-07T05:05:28.831Z,36.29
2022-10-07T05:06:02.167Z,36.13
2022-10-07T05:06:28.896Z,36.16
2022-10-07T05:06:58.924Z,36.23
2022-10-07T05:07:28.952Z,36.04
2022-10-07T05:07:58.979Z,36.11
2022-10-07T05:08:29.001Z,36.07
2022-10-07T05:08:59.024Z,35.88
2022-10-07T05:09:29.051Z,35.89
2022-10-07T05:09:59.076Z,35.78
2022-10-07T05:10:29.102Z,35.75
2022-10-07T05:10:59.125Z,35.65
2022-10-07T05:11:29.149Z,35.64
2022-10-07T05:11:59.178Z,35.63
2022-10-07T05:12:29.205Z,35.64
2022-10-07T05:12:59.230Z,35.60
2022-10-07T05:13:29.255Z,35.57
2022-10-07T05:13:59.279Z,35.56
2022-10-07T05:14:29.306Z,35.53
2022-10-07T05:14:59.334Z,35.51
2022-10-07T05:15:29.376Z,35.51
2022-10-07T05:15:59.460Z,35.47
2022-10-07T05:16:29.502Z,35.39
2022-10-07T05:16:59.528Z,35.43
2022-10-07T05:17:29.552Z,35.38
2022-10-07T05:17:59.576Z,35.42
2022-10-07T05:18:29.643Z,35.36
2022-10-07T05:18:59.667Z,35.35
2022-10-07T05:19:29.692Z,35.37
2022-10-07T05:19:59.713Z,35.21
2022-10-07T05:20:29.738Z,35.27
2022-10-07T05:20:59.762Z,35.27
2022-10-07T05:21:29.769Z,35.20
2022-10-07T05:21:59.883Z,35.17
2022-10-07T05:22:29.993Z,35.14
2022-10-07T05:23:00.108Z,35.12
2022-10-07T05:23:30.219Z,35.14
2022-10-07T05:24:00.333Z,35.14
2022-10-07T05:24:30.446Z,35.09
2022-10-07T05:25:00.562Z,35.05
2022-10-07T05:25:30.673Z,35.08
2022-10-07T05:26:00.786Z,35.01
2022-10-07T05:26:30.895Z,34.98
2022-10-07T05:27:01.010Z,34.96
2022-10-07T05:27:31.123Z,34.97
2022-10-07T05:28:01.266Z,34.97
2022-10-07T05:28:31.346Z,34.95
2022-10-07T05:29:01.339Z,34.94
2022-10-07T05:29:31.459Z,34.95
2022-10-07T05:30:01.568Z,34.92
2022-10-07T05:30:31.675Z,34.88
2022-10-07T05:31:01.720Z,34.95
2022-10-07T05:31:31.860Z,34.95
2022-10-07T05:32:05.078Z,34.88
2022-10-07T05:32:31.830Z,34.94
2022-10-07T05:33:01.851Z,34.92
2022-10-07T05:33:31.876Z,34.93
2022-10-07T05:34:01.907Z,34.93
2022-10-07T05:34:31.935Z,34.86
2022-10-07T05:35:01.959Z,34.87
2022-10-07T05:35:31.978Z,34.86
2022-10-07T05:36:02.007Z,34.85
2022-10-07T05:36:32.026Z,34.93
2022-10-07T05:37:02.054Z,34.96
2022-10-07T05:37:32.081Z,34.90
2022-10-07T05:38:02.105Z,34.92
2022-10-07T05:38:32.135Z,34.92
2022-10-07T05:39:02.162Z,34.87
2022-10-07T05:39:32.230Z,34.89
2022-10-07T05:40:02.257Z,34.90
2022-10-07T05:40:32.285Z,34.89
2022-10-07T05:41:02.323Z,34.92
2022-10-07T05:41:32.342Z,34.87
2022-10-07T05:42:02.380Z,34.90
2022-10-07T05:42:32.405Z,34.92
2022-10-07T05:43:02.424Z,34.90
2022-10-07T05:43:32.451Z,34.89
2022-10-07T05:44:02.474Z,34.89
2022-10-07T05:44:32.504Z,34.80
2022-10-07T05:45:02.528Z,34.85
2022-10-07T05:45:32.586Z,34.84
2022-10-07T05:46:02.724Z,34.88
2022-10-07T05:46:32.657Z,34.74
2022-10-07T05:47:02.709Z,34.89
2022-10-07T05:47:32.704Z,34.85
2022-10-07T05:48:02.734Z,34.84
2022-10-07T05:48:37.969Z,34.86
2022-10-07T05:49:02.799Z,34.89
2022-10-07T05:49:32.824Z,34.82
2022-10-07T05:50:02.983Z,34.82
2022-10-07T05:50:32.886Z,34.85
2022-10-07T05:51:02.915Z,34.79
2022-10-07T05:51:32.936Z,34.84
2022-10-07T05:52:02.959Z,34.84
2022-10-07T05:52:32.979Z,34.60
2022-10-07T05:53:03.009Z,34.72
2022-10-07T05:53:33.029Z,34.78
2022-10-07T05:54:03.069Z,34.85
2022-10-07T05:54:33.082Z,34.91
2022-10-07T05:55:03.271Z,34.81
2022-10-07T05:55:38.051Z,34.84
2022-10-07T05:56:03.224Z,34.81
2022-10-07T05:56:33.249Z,34.77
2022-10-07T05:57:03.271Z,34.77
2022-10-07T05:57:33.293Z,34.80
2022-10-07T05:58:03.319Z,34.77
2022-10-07T05:58:33.342Z,34.82
2022-10-07T05:59:03.367Z,34.81
2022-10-07T05:59:33.392Z,34.79
2022-10-07T06:00:03.581Z,34.75
2022-10-07T06:00:33.478Z,34.75
2022-10-07T06:01:06.830Z,34.78
2022-10-07T06:01:33.539Z,34.76
2022-10-07T06:02:03.751Z,34.69
2022-10-07T06:02:33.788Z,34.72
2022-10-07T06:03:03.795Z,34.72
2022-10-07T06:03:33.742Z,34.65
2022-10-07T06:04:03.772Z,34.71
2022-10-07T06:04:33.793Z,34.70
2022-10-07T06:05:03.821Z,34.68
2022-10-07T06:05:33.843Z,34.67
2022-10-07T06:06:03.873Z,34.68
2022-10-07T06:06:33.895Z,34.64
2022-10-07T06:07:03.918Z,34.58
2022-10-07T06:07:33.945Z,34.57
2022-10-07T06:08:03.970Z,34.61
2022-10-07T06:08:33.992Z,34.60
2022-10-07T06:09:04.021Z,34.61
2022-10-07T06:09:34.057Z,34.58
2022-10-07T06:10:04.120Z,34.56
2022-10-07T06:10:34.143Z,34.56
2022-10-07T06:11:04.174Z,34.53
2022-10-07T06:11:34.189Z,34.54
2022-10-07T06:12:04.211Z,34.54
2022-10-07T06:12:34.234Z,34.50
2022-10-07T06:13:04.262Z,34.53
2022-10-07T06:13:34.287Z,34.53
2022-10-07T06:14:04.307Z,34.49
2022-10-07T06:14:34.346Z,34.49
2022-10-07T06:15:04.368Z,34.47
2022-10-07T06:15:34.399Z,34.47
2022-10-07T06:16:04.426Z,34.47
2022-10-07T06:16:34.549Z,34.47
2022-10-07T06:17:04.695Z,34.40
2022-10-07T06:17:34.659Z,34.44
2022-10-07T06:18:04.704Z,34.45
2022-10-07T06:18:34.709Z,34.42
2022-10-07T06:19:04.732Z,34.42
2022-10-07T06:19:34.759Z,34.40
2022-10-07T06:20:04.780Z,34.40
2022-10-07T06:20:34.808Z,34.38
2022-10-07T06:21:04.830Z,34.38
2022-10-07T06:21:34.832Z,34.39
2022-10-07T06:22:04.942Z,34.39
2022-10-07T06:22:35.053Z,34.33
2022-10-07T06:23:05.164Z,34.33
2022-10-07T06:23:35.277Z,34.36
2022-10-07T06:24:05.389Z,34.29
2022-10-07T06:24:35.506Z,34.32
2022-10-07T06:25:05.616Z,34.32
2022-10-07T06:25:35.726Z,34.33
2022-10-07T06:26:05.847Z,34.31
2022-10-07T06:26:35.955Z,34.33
2022-10-07T06:27:06.066Z,34.29